Salt Lake City, Utah
Traffic Map
Current Weather Conditions
Salt Lake City, Utah
Broken Clouds
Broken Clouds
43°
Feels Like: 36°
Wind Chill: 36° Ceiling: 9500
Heat Index: 43° Visibility: 10mi
Dew Point: 25° Wind: 13mph
Humidity: 49% Direction: 190° (S)
Pressure: 30.09in Gusts: 0mph
Raw Report DataKSLC 200053Z 19011KT 10SM SCT075 BKN095 BKN160 06/M04 A3009 RMK AO2 SLP192 T00611039
Traffic Incident Summary
Active as of:
Severity:
Category:
InformationThere was an issue retrieving the traffic information for this location. Please try a different location or try again shortly.
Advertisements
Track Severe Weather on mobile